Time;durP1;ratioP1;P1;durP2;ratioP2;P2;SDS_P1;SDS_P2;PMS_P1;PMS_P2;Temp;Humidity;BMP_temperature;BMP_pressure;BME280_temperature;BME280_humidity;BME280_pressure;Samples;Min_cycle;Max_cycle;Signal;HPM_P1;HPM_P2
2022/01/03 00:01:33;;;;;;;10.23;2.03;;;11.40;99.90;;;;;;4946116;28;20586;-87
2022/01/03 00:03:58;;;;;;;13.77;1.90;;;11.40;99.90;;;;;;4946020;28;20041;-87
2022/01/03 00:06:24;;;;;;;9.70;2.00;;;11.40;99.90;;;;;;4962297;28;20035;-87
2022/01/03 00:08:50;;;;;;;11.70;2.20;;;11.40;99.90;;;;;;4961822;28;20046;-87
2022/01/03 00:11:19;;;;;;;9.77;2.00;;;11.40;99.90;;;;;;4946270;28;20034;-87
2022/01/03 00:13:47;;;;;;;13.18;2.22;;;11.40;99.90;;;;;;4980743;28;20113;-87
2022/01/03 00:16:12;;;;;;;9.10;2.70;;;11.40;99.90;;;;;;4963308;28;20026;-87
2022/01/03 00:18:39;;;;;;;12.67;2.20;;;11.40;99.90;;;;;;4980371;28;20037;-87
2022/01/03 00:21:10;;;;;;;14.10;3.40;;;11.20;99.90;;;;;;4980457;28;20056;-86
2022/01/03 00:23:38;;;;;;;16.10;2.43;;;11.30;99.90;;;;;;4962225;28;20031;-87
2022/01/03 00:26:07;;;;;;;14.02;2.55;;;11.30;99.90;;;;;;4962079;28;20042;-87
2022/01/03 00:28:36;;;;;;;13.88;2.38;;;11.20;99.90;;;;;;4978751;28;20039;-87
2022/01/03 00:31:03;;;;;;;12.23;2.23;;;11.30;99.90;;;;;;4961734;28;20095;-86
2022/01/03 00:33:30;;;;;;;13.63;2.20;;;11.20;99.90;;;;;;4945912;28;20536;-87
2022/01/03 00:36:02;;;;;;;16.47;2.70;;;11.20;99.90;;;;;;4961955;28;20031;-87
2022/01/03 00:38:31;;;;;;;16.30;2.70;;;11.20;99.90;;;;;;4961558;28;20122;-87
2022/01/03 00:40:59;;;;;;;18.17;2.47;;;11.20;99.90;;;;;;4946011;28;20026;-87
2022/01/03 00:43:26;;;;;;;17.80;2.47;;;11.20;99.90;;;;;;4945792;28;20162;-87
2022/01/03 00:45:53;;;;;;;20.83;2.70;;;11.20;99.90;;;;;;4962286;28;20386;-87
2022/01/03 00:48:19;;;;;;;14.17;2.50;;;11.20;99.90;;;;;;4961457;28;20035;-87
2022/01/03 00:50:46;;;;;;;18.57;2.53;;;11.20;99.90;;;;;;4945659;28;20042;-87
2022/01/03 00:53:12;;;;;;;17.40;2.83;;;11.30;99.90;;;;;;4979112;28;20037;-87
2022/01/03 00:55:50;;;;;;;13.30;2.27;;;11.20;99.90;;;;;;4960047;28;20026;-87
2022/01/03 00:58:19;;;;;;;14.60;2.33;;;11.20;99.90;;;;;;4958442;28;20027;-87
2022/01/03 01:00:50;;;;;;;16.00;2.42;;;11.30;99.90;;;;;;4958531;28;20441;-87
2022/01/03 01:03:21;;;;;;;14.93;2.60;;;11.20;99.90;;;;;;4958761;28;20220;-87
2022/01/03 01:05:49;;;;;;;24.97;3.63;;;11.20;99.90;;;;;;4958727;28;20027;-87
2022/01/03 01:08:20;;;;;;;16.90;2.83;;;11.20;99.90;;;;;;4942047;28;20029;-87
2022/01/03 01:10:50;;;;;;;18.60;2.30;;;11.20;99.90;;;;;;4975567;28;20036;-87
2022/01/03 01:13:17;;;;;;;16.58;2.58;;;11.20;99.90;;;;;;4958457;28;20058;-87
2022/01/03 01:15:43;;;;;;;25.80;3.20;;;11.10;99.90;;;;;;4942468;28;20038;-87
2022/01/03 01:18:10;;;;;;;20.63;2.87;;;11.20;99.90;;;;;;4942240;28;20122;-87
2022/01/03 01:20:39;;;;;;;19.20;2.90;;;11.20;99.90;;;;;;4942252;28;20031;-87
2022/01/03 01:23:08;;;;;;;17.93;3.00;;;11.20;99.90;;;;;;4942392;28;20026;-87
2022/01/03 01:28:08;;;;;;;21.20;3.08;;;11.20;99.90;;;;;;4957874;28;20027;-87
2022/01/03 01:30:35;;;;;;;17.40;2.83;;;11.30;99.90;;;;;;4958126;28;20409;-87
2022/01/03 01:33:04;;;;;;;18.05;2.70;;;11.20;99.90;;;;;;4942252;28;20061;-87
2022/01/03 01:35:48;;;;;;;16.23;2.33;;;11.30;99.90;;;;;;4958226;28;20113;-87
2022/01/03 01:38:22;;;;;;;20.37;3.57;;;11.20;99.90;;;;;;4958317;28;20022;-87
2022/01/03 01:40:52;;;;;;;17.63;2.63;;;11.30;99.90;;;;;;4958814;28;20027;-87
2022/01/03 01:43:33;;;;;;;20.60;2.70;;;11.20;99.90;;;;;;4960119;28;20240;-88
2022/01/03 01:46:02;;;;;;;20.57;2.93;;;11.20;99.90;;;;;;4960749;28;20069;-88
2022/01/03 01:48:32;;;;;;;18.63;2.90;;;11.10;99.90;;;;;;4944285;28;20035;-88
2022/01/03 01:51:00;;;;;;;20.13;2.80;;;11.10;99.90;;;;;;4960030;28;20027;-88
2022/01/03 01:53:27;;;;;;;15.70;2.53;;;11.10;99.90;;;;;;4944720;28;20170;-87
2022/01/03 01:55:59;;;;;;;18.35;2.88;;;11.10;99.90;;;;;;4943035;28;20019;-87
2022/01/03 01:58:28;;;;;;;16.67;2.93;;;11.10;99.90;;;;;;4941281;28;20086;-87
2022/01/03 02:01:06;;;;;;;17.10;2.90;;;11.20;99.90;;;;;;4957733;28;20090;-87
2022/01/03 02:03:38;;;;;;;22.70;3.43;;;11.10;99.90;;;;;;4942440;28;20031;-87
2022/01/03 02:06:31;;;;;;;20.05;3.88;;;11.10;99.90;;;;;;4941428;28;20031;-87
2022/01/03 02:09:08;;;;;;;14.60;3.63;;;11.10;99.90;;;;;;4951790;28;20121;-87
2022/01/03 02:11:49;;;;;;;20.37;3.60;;;11.10;99.90;;;;;;4957222;28;20026;-87
2022/01/03 02:14:16;;;;;;;17.60;3.30;;;11.10;99.90;;;;;;4941496;28;20489;-87
2022/01/03 02:16:42;;;;;;;25.97;4.10;;;11.10;99.90;;;;;;4957327;28;20082;-87
2022/01/03 02:19:10;;;;;;;24.57;4.70;;;11.00;99.90;;;;;;4956724;28;20062;-87
2022/01/03 02:21:36;;;;;;;17.20;4.20;;;11.10;99.90;;;;;;4956963;28;20041;-87
2022/01/03 02:24:06;;;;;;;19.30;3.60;;;11.10;99.90;;;;;;4941871;28;20045;-87
2022/01/03 02:26:33;;;;;;;22.27;4.93;;;11.00;99.90;;;;;;4941164;28;20078;-87
2022/01/03 02:28:59;;;;;;;24.47;4.33;;;11.00;99.90;;;;;;4940762;28;20027;-87
2022/01/03 02:31:26;;;;;;;20.40;3.40;;;11.00;99.90;;;;;;4997538;23;20719;-90
2022/01/03 02:33:52;;;;;;;18.37;3.50;;;11.00;99.90;;;;;;4941435;28;20035;-90
2022/01/03 02:36:18;;;;;;;18.93;3.60;;;11.00;99.90;;;;;;4941208;28;20030;-90
2022/01/03 02:38:45;;;;;;;16.10;3.63;;;11.00;99.90;;;;;;4940643;28;20070;-90
2022/01/03 02:41:11;;;;;;;21.33;3.50;;;11.00;99.90;;;;;;4940780;28;20035;-90
2022/01/03 02:43:38;;;;;;;19.83;4.03;;;10.90;99.90;;;;;;4940932;28;20042;-90
2022/01/03 02:46:04;;;;;;;21.80;3.40;;;11.00;99.90;;;;;;4956901;28;20034;-90
2022/01/03 02:48:31;;;;;;;16.20;3.03;;;11.00;99.90;;;;;;4940811;28;20034;-90
2022/01/03 02:50:58;;;;;;;16.87;3.50;;;11.00;99.90;;;;;;4940917;28;20039;-90
2022/01/03 02:53:24;;;;;;;21.37;3.63;;;11.00;99.90;;;;;;4940821;28;20030;-90
2022/01/03 02:55:50;;;;;;;14.60;2.60;;;11.00;99.90;;;;;;4940775;28;20027;-90
2022/01/03 02:58:15;;;;;;;17.77;2.50;;;10.90;99.90;;;;;;4940399;28;20052;-90
2022/01/03 03:00:48;;;;;;;13.50;3.27;;;10.90;99.90;;;;;;4940982;28;20441;-90
2022/01/03 03:03:21;;;;;;;20.23;4.30;;;11.00;99.90;;;;;;4942334;28;20037;-90
2022/01/03 03:05:50;;;;;;;19.47;3.77;;;10.90;99.90;;;;;;4941091;28;20027;-90
2022/01/03 03:08:17;;;;;;;14.93;3.90;;;10.90;99.90;;;;;;4940429;28;20031;-90
2022/01/03 03:10:45;;;;;;;18.03;4.03;;;10.90;99.90;;;;;;4956702;28;20390;-90
2022/01/03 03:13:11;;;;;;;18.27;3.27;;;10.90;99.90;;;;;;4940477;28;20034;-90
2022/01/03 03:15:37;;;;;;;18.73;3.30;;;10.90;99.90;;;;;;4940353;28;20030;-90
2022/01/03 03:18:03;;;;;;;18.87;3.03;;;10.90;99.90;;;;;;4940056;28;20073;-91
2022/01/03 03:20:32;;;;;;;20.17;3.33;;;10.90;99.90;;;;;;4939801;28;20089;-90
2022/01/03 03:22:59;;;;;;;13.90;2.20;;;10.90;99.90;;;;;;4940387;28;20031;-90
2022/01/03 03:25:30;;;;;;;16.05;2.65;;;10.90;99.90;;;;;;4940675;28;20397;-90
2022/01/03 03:28:04;;;;;;;17.53;2.83;;;10.80;99.90;;;;;;4940575;28;20137;-91
2022/01/03 03:30:32;;;;;;;13.47;2.50;;;10.80;99.90;;;;;;4940089;28;20035;-91
2022/01/03 03:33:09;;;;;;;21.67;4.03;;;10.80;99.90;;;;;;4956059;28;20049;-90
2022/01/03 03:35:38;;;;;;;15.90;3.23;;;10.90;99.90;;;;;;4940502;28;20070;-90
2022/01/03 03:38:05;;;;;;;15.93;3.67;;;10.80;99.90;;;;;;4939966;28;20300;-91
2022/01/03 03:40:31;;;;;;;20.27;3.43;;;10.80;99.90;;;;;;4940336;28;20038;-91
2022/01/03 03:43:00;;;;;;;16.43;3.50;;;10.80;99.90;;;;;;4940040;28;20031;-90
2022/01/03 03:45:26;;;;;;;12.65;2.90;;;10.80;99.90;;;;;;4940003;28;20081;-91
2022/01/03 03:47:52;;;;;;;17.77;3.20;;;10.80;99.90;;;;;;4939807;28;20494;-91
2022/01/03 03:50:20;;;;;;;15.57;4.03;;;10.80;99.90;;;;;;4939833;28;20058;-90
2022/01/03 03:52:46;;;;;;;16.90;3.97;;;10.80;99.90;;;;;;4939948;28;20030;-90
2022/01/03 03:55:14;;;;;;;19.17;4.70;;;10.80;99.90;;;;;;4940626;28;20031;-90
2022/01/03 03:57:40;;;;;;;16.97;3.73;;;10.80;99.90;;;;;;4939890;28;20504;-91
2022/01/03 04:00:16;;;;;;;18.57;3.67;;;10.80;99.90;;;;;;4940014;28;20027;-91
2022/01/03 04:02:47;;;;;;;18.80;3.70;;;10.90;99.90;;;;;;4940817;28;20031;-90
2022/01/03 04:05:16;;;;;;;13.33;3.37;;;10.90;99.90;;;;;;4940596;28;20494;-90
2022/01/03 04:07:44;;;;;;;25.33;4.27;;;10.90;99.90;;;;;;4940000;28;20416;-91
2022/01/03 04:10:11;;;;;;;22.17;4.17;;;10.80;99.90;;;;;;4939855;28;20031;-90
2022/01/03 04:12:39;;;;;;;17.00;3.87;;;10.90;99.90;;;;;;4939940;28;20037;-90
2022/01/03 04:15:07;;;;;;;18.63;3.83;;;10.80;99.90;;;;;;4940211;28;20031;-90
2022/01/03 04:17:34;;;;;;;18.80;4.33;;;10.80;99.90;;;;;;4939855;28;20416;-91
2022/01/03 04:20:00;;;;;;;16.10;3.13;;;10.80;99.90;;;;;;4939648;28;20033;-91
2022/01/03 04:22:26;;;;;;;18.17;3.30;;;10.80;99.90;;;;;;4939482;28;20031;-91
2022/01/03 04:24:52;;;;;;;18.40;3.17;;;10.80;99.90;;;;;;4939864;28;20433;-90
2022/01/03 04:27:18;;;;;;;18.10;2.70;;;10.80;99.90;;;;;;4939778;28;20088;-90
2022/01/03 04:29:44;;;;;;;15.43;3.10;;;10.80;99.90;;;;;;4939259;28;20038;-91
2022/01/03 04:32:09;;;;;;;15.13;3.40;;;10.80;99.90;;;;;;4942955;28;20035;-91
2022/01/03 04:34:35;;;;;;;16.30;2.77;;;10.80;99.90;;;;;;4943293;28;20031;-91
2022/01/03 04:37:01;;;;;;;17.33;2.87;;;10.80;99.90;;;;;;4943346;28;20031;-91
2022/01/03 04:39:28;;;;;;;14.10;3.23;;;10.80;99.90;;;;;;4943643;28;20031;-90
2022/01/03 04:41:57;;;;;;;17.27;2.67;;;10.70;99.90;;;;;;4946546;28;20035;-90
2022/01/03 04:44:23;;;;;;;20.80;2.75;;;10.70;99.90;;;;;;4945997;28;20408;-90
2022/01/03 04:46:49;;;;;;;17.00;2.90;;;10.70;99.90;;;;;;4945526;28;20122;-91
2022/01/03 04:49:18;;;;;;;17.07;2.93;;;10.80;99.90;;;;;;4945836;28;20053;-90
2022/01/03 04:51:44;;;;;;;;;;;10.70;99.90;;;;;;4945593;28;20374;-91
2022/01/03 04:54:10;;;;;;;18.90;2.50;;;10.80;99.90;;;;;;4961734;28;19956;-93
2022/01/03 04:56:35;;;;;;;20.03;2.73;;;10.70;99.90;;;;;;4945163;28;20031;-90
2022/01/03 04:59:03;;;;;;;20.57;3.13;;;10.70;99.90;;;;;;4944735;28;20058;-90
2022/01/03 05:01:29;;;;;;;15.10;2.93;;;10.70;99.90;;;;;;4945237;28;20043;-90
2022/01/03 05:03:55;;;;;;;14.47;2.57;;;10.70;99.90;;;;;;4945113;28;20126;-90
2022/01/03 05:06:21;;;;;;;15.07;3.03;;;10.70;99.90;;;;;;4945472;28;20039;-90
2022/01/03 05:08:49;;;;;;;14.83;2.33;;;10.70;99.90;;;;;;4944641;28;20125;-91
2022/01/03 05:11:16;;;;;;;18.77;2.70;;;10.70;99.90;;;;;;4943539;28;20023;-90
2022/01/03 05:13:42;;;;;;;16.70;2.83;;;10.70;99.90;;;;;;4942948;28;20027;-91
2022/01/03 05:16:09;;;;;;;21.10;3.00;;;10.60;99.90;;;;;;4942687;28;20531;-90
2022/01/03 05:18:35;;;;;;;17.20;3.33;;;10.70;99.90;;;;;;4942462;28;20026;-91
2022/01/03 05:21:02;;;;;;;22.57;3.10;;;10.60;99.90;;;;;;4942675;28;20030;-91
2022/01/03 05:23:30;;;;;;;13.43;2.53;;;10.70;99.90;;;;;;4942970;28;20039;-91
2022/01/03 05:25:56;;;;;;;13.73;2.93;;;10.70;99.90;;;;;;4943087;28;20081;-90
2022/01/03 05:28:22;;;;;;;21.20;2.57;;;10.70;99.90;;;;;;4958079;28;20031;-90
2022/01/03 05:30:47;;;;;;;14.57;2.47;;;10.70;99.90;;;;;;4958168;28;20029;-90
2022/01/03 05:33:23;;;;;;;12.77;2.30;;;10.70;99.90;;;;;;4942137;28;20481;-91
2022/01/03 05:35:48;;;;;;;12.20;2.53;;;10.80;99.90;;;;;;4942252;28;20027;-90
2022/01/03 05:38:15;;;;;;;17.87;2.27;;;10.80;99.90;;;;;;4942092;28;20134;-90
2022/01/03 05:40:40;;;;;;;19.67;2.70;;;10.70;99.90;;;;;;4942287;28;20106;-91
2022/01/03 05:43:10;;;;;;;16.07;2.67;;;10.80;99.90;;;;;;4941365;28;20030;-90
2022/01/03 05:45:37;;;;;;;18.43;2.87;;;10.80;99.90;;;;;;4942461;28;20034;-90
2022/01/03 05:48:05;;;;;;;17.53;2.50;;;10.80;99.90;;;;;;4942014;28;20034;-91
2022/01/03 05:50:31;;;;;;;17.90;4.67;;;10.70;99.90;;;;;;4942356;28;20531;-90
2022/01/03 05:52:56;;;;;;;18.23;3.97;;;10.80;99.90;;;;;;4941741;28;20027;-90
2022/01/03 05:55:24;;;;;;;18.53;3.47;;;10.80;99.90;;;;;;4941953;28;20023;-91
2022/01/03 05:57:50;;;;;;;14.50;2.73;;;10.80;99.90;;;;;;4941617;28;20026;-90
2022/01/03 06:00:22;;;;;;;12.17;2.63;;;10.80;99.90;;;;;;4942487;28;20540;-90
2022/01/03 06:02:53;;;;;;;18.00;2.40;;;10.80;99.90;;;;;;4941669;28;20042;-91
2022/01/03 06:05:40;;;;;;;15.47;2.90;;;10.80;99.90;;;;;;4941902;28;20039;-90
2022/01/03 06:08:06;;;;;;;15.07;2.33;;;10.70;99.90;;;;;;4957197;28;20102;-91
2022/01/03 06:10:41;;;;;;;12.73;2.30;;;10.70;99.90;;;;;;4957588;28;20505;-91
2022/01/03 06:13:11;;;;;;;16.20;2.10;;;10.70;99.90;;;;;;4942113;28;20508;-90
2022/01/03 06:15:38;;;;;;;14.40;2.53;;;10.70;99.90;;;;;;4941582;28;20066;-91
2022/01/03 06:18:10;;;;;;;18.70;2.87;;;10.70;99.90;;;;;;4941374;28;20077;-91
2022/01/03 06:20:42;;;;;;;17.73;2.60;;;10.70;99.90;;;;;;4941472;28;20031;-91
2022/01/03 06:23:09;;;;;;;14.50;2.57;;;10.70;99.90;;;;;;4941160;28;20038;-90
2022/01/03 06:25:35;;;;;;;17.80;3.00;;;10.70;99.90;;;;;;4941611;28;20174;-90
2022/01/03 06:28:07;;;;;;;20.77;3.40;;;10.80;99.90;;;;;;4957239;28;20500;-90
2022/01/03 06:30:34;;;;;;;18.63;2.90;;;10.80;99.90;;;;;;4941466;28;20031;-91
2022/01/03 06:33:00;;;;;;;21.73;3.10;;;10.80;99.90;;;;;;4940901;28;20058;-90
2022/01/03 06:35:26;;;;;;;17.80;3.47;;;10.70;99.90;;;;;;4941149;28;20031;-90
2022/01/03 06:37:52;;;;;;;18.07;3.67;;;10.70;99.90;;;;;;4941051;28;20491;-91
2022/01/03 06:40:22;;;;;;;22.70;6.90;;;10.80;99.90;;;;;;4941677;28;20053;-91
2022/01/03 06:42:48;;;;;;;19.53;4.20;;;10.70;99.90;;;;;;4940853;28;20030;-91
2022/01/03 06:45:16;;;;;;;19.03;3.37;;;10.80;99.90;;;;;;4957086;28;20532;-90
2022/01/03 06:47:44;;;;;;;19.43;2.73;;;10.70;99.90;;;;;;4956599;28;20035;-90
2022/01/03 06:50:10;;;;;;;14.57;3.00;;;10.70;99.90;;;;;;4940860;28;20664;-91
2022/01/03 06:52:36;;;;;;;19.13;2.30;;;10.80;99.90;;;;;;4940911;28;20093;-91
2022/01/03 06:55:05;;;;;;;16.50;3.10;;;10.70;99.90;;;;;;4939882;28;20031;-90
2022/01/03 06:57:32;;;;;;;17.10;2.83;;;10.70;99.90;;;;;;4940724;28;20038;-90
2022/01/03 06:59:58;;;;;;;22.43;3.60;;;10.70;99.90;;;;;;4940533;28;20039;-90
2022/01/03 07:02:24;;;;;;;15.83;2.67;;;10.70;99.90;;;;;;4957039;28;20058;-90
2022/01/03 07:04:50;;;;;;;12.73;2.20;;;10.70;99.90;;;;;;4940891;28;20081;-91
2022/01/03 07:07:15;;;;;;;18.53;2.40;;;10.70;99.90;;;;;;4940817;28;20035;-91
2022/01/03 07:09:41;;;;;;;17.70;3.40;;;10.80;99.90;;;;;;4956383;28;20031;-90
2022/01/03 07:12:08;;;;;;;15.97;3.20;;;10.70;99.90;;;;;;4940600;28;20030;-91
2022/01/03 07:19:58;;;;;;;15.03;2.30;;;10.80;99.90;;;;;;4956248;28;20501;-91
2022/01/03 07:22:25;;;;;;;15.40;2.60;;;10.80;99.90;;;;;;4956750;28;20066;-90
2022/01/03 07:24:52;;;;;;;17.27;2.57;;;10.80;99.90;;;;;;4956310;28;20092;-90
2022/01/03 07:27:19;;;;;;;13.87;2.03;;;10.80;99.90;;;;;;4956199;28;20129;-91
2022/01/03 07:29:48;;;;;;;12.37;2.60;;;10.80;99.90;;;;;;4940422;28;20115;-90
2022/01/03 07:32:14;;;;;;;19.08;2.83;;;10.80;99.90;;;;;;4940099;28;20417;-90
2022/01/03 07:34:40;;;;;;;15.73;3.30;;;10.80;99.90;;;;;;4940233;28;20042;-90
2022/01/03 07:37:06;;;;;;;17.50;3.33;;;10.80;99.90;;;;;;4956234;28;20114;-90
2022/01/03 07:39:34;;;;;;;17.03;2.73;;;10.80;99.90;;;;;;4939955;28;20178;-90
2022/01/03 07:42:01;;;;;;;14.93;2.20;;;10.80;99.90;;;;;;4939976;28;20035;-90
2022/01/03 07:44:34;;;;;;;13.40;2.27;;;10.80;99.90;;;;;;4941480;28;20045;-90
2022/01/03 07:47:00;;;;;;;16.00;3.07;;;10.80;99.90;;;;;;4956329;28;20046;-91
2022/01/03 07:49:25;;;;;;;18.60;2.83;;;10.80;99.90;;;;;;4956305;28;20027;-90
2022/01/03 07:51:51;;;;;;;13.83;1.93;;;10.80;99.90;;;;;;4959169;28;20038;-90
2022/01/03 07:54:17;;;;;;;17.50;2.60;;;10.80;99.90;;;;;;4944579;28;20045;-91
2022/01/03 07:56:43;;;;;;;13.67;2.33;;;10.90;99.90;;;;;;4944670;28;20026;-91
2022/01/03 07:59:09;;;;;;;15.33;2.77;;;10.80;99.90;;;;;;4944455;28;20050;-91
2022/01/03 08:01:35;;;;;;;13.50;2.57;;;10.80;99.90;;;;;;4944539;28;20030;-91
2022/01/03 08:04:00;;;;;;;13.87;3.03;;;10.70;99.90;;;;;;4945929;28;20505;-91
2022/01/03 08:06:27;;;;;;;15.40;2.97;;;10.80;99.90;;;;;;4952844;28;20031;-91
2022/01/03 08:08:53;;;;;;;18.77;3.20;;;10.80;99.90;;;;;;4950788;28;20069;-90
2022/01/03 08:11:19;;;;;;;15.60;2.30;;;10.80;99.90;;;;;;4948336;28;20512;-90
2022/01/03 08:13:46;;;;;;;20.50;3.40;;;10.80;99.90;;;;;;4949730;28;20071;-91
2022/01/03 08:16:12;;;;;;;19.83;3.17;;;10.70;99.90;;;;;;4947888;28;20031;-90
2022/01/03 08:18:38;;;;;;;14.67;2.87;;;10.80;99.90;;;;;;4947224;28;20031;-90
2022/01/03 08:21:04;;;;;;;10.47;2.20;;;10.80;99.90;;;;;;4947209;28;20035;-91
2022/01/03 08:23:31;;;;;;;17.83;3.23;;;10.70;99.90;;;;;;4946620;28;20027;-91
2022/01/03 08:25:57;;;;;;;22.47;2.90;;;10.80;99.90;;;;;;4946133;28;20034;-90
2022/01/03 08:28:23;;;;;;;14.80;2.43;;;10.80;99.90;;;;;;4945642;28;20035;-91
2022/01/03 08:30:49;;;;;;;19.37;2.50;;;10.80;99.90;;;;;;4959279;28;20033;-91
2022/01/03 09:30:36;;;;;;;15.57;2.50;;;11.00;99.90;;;;;;4954648;29;20051;-90
2022/01/03 09:33:03;;;;;;;15.37;3.07;;;11.00;99.90;;;;;;4926169;29;20032;-89
2022/01/03 09:35:28;;;;;;;16.77;3.00;;;11.00;99.90;;;;;;4951900;28;20067;-90
2022/01/03 09:37:54;;;;;;;16.50;2.90;;;11.00;99.90;;;;;;4935867;29;20067;-89
2022/01/03 09:40:21;;;;;;;14.03;3.90;;;11.00;99.90;;;;;;4936317;29;20035;-90
2022/01/03 09:42:55;;;;;;;19.43;3.07;;;11.10;99.90;;;;;;4952313;28;20031;-90
2022/01/03 09:45:21;;;;;;;16.60;2.87;;;11.10;99.90;;;;;;4935715;29;20032;-90
2022/01/03 09:47:52;;;;;;;18.73;3.43;;;11.10;99.90;;;;;;4951303;29;20537;-90
2022/01/03 09:50:21;;;;;;;17.47;3.40;;;11.20;99.90;;;;;;4951523;29;20031;-89
2022/01/03 09:52:48;;;;;;;16.43;3.37;;;11.20;99.90;;;;;;4935261;29;20397;-90
2022/01/03 09:55:20;;;;;;;24.27;3.53;;;11.20;99.90;;;;;;4951493;28;20160;-89
2022/01/03 09:57:48;;;;;;;17.00;2.83;;;11.20;99.90;;;;;;4935130;29;20032;-90
2022/01/03 10:00:25;;;;;;;14.33;2.53;;;11.30;99.90;;;;;;4935412;29;20079;-91
2022/01/03 10:02:53;;;;;;;18.67;2.50;;;11.30;99.90;;;;;;4935425;29;20114;-90
2022/01/03 10:05:20;;;;;;;19.60;2.90;;;11.30;99.90;;;;;;4951370;28;20036;-89
2022/01/03 10:07:46;;;;;;;15.03;2.73;;;11.30;99.90;;;;;;4950967;29;20047;-90
2022/01/03 10:10:13;;;;;;;16.00;2.73;;;11.30;99.90;;;;;;4935366;29;20349;-90
2022/01/03 10:12:39;;;;;;;15.67;2.50;;;11.30;99.90;;;;;;4950940;28;20028;-91
2022/01/03 10:15:07;;;;;;;14.33;2.50;;;11.30;99.90;;;;;;4935735;29;20059;-90
2022/01/03 10:17:38;;;;;;;17.77;2.83;;;11.30;99.90;;;;;;4950947;29;20027;-90
2022/01/03 10:20:08;;;;;;;15.10;2.03;;;11.30;99.90;;;;;;4935253;29;20047;-89
2022/01/03 10:22:35;;;;;;;14.10;2.20;;;11.30;99.90;;;;;;4934955;29;20474;-90
2022/01/03 10:25:10;;;;;;;16.07;3.27;;;11.30;99.90;;;;;;4951072;29;20218;-91
2022/01/03 10:27:51;;;;;;;14.97;2.47;;;11.40;99.90;;;;;;4950586;29;20059;-90
2022/01/03 10:30:45;;;;;;;14.47;2.50;;;11.40;99.90;;;;;;4934933;29;20039;-90
2022/01/03 10:33:19;;;;;;;19.57;7.00;;;11.40;99.90;;;;;;4935173;29;20082;-90
2022/01/03 10:43:22;;;;;;;12.53;2.57;;;11.40;99.90;;;;;;4934319;29;20034;-90
2022/01/03 10:46:35;;;;;;;14.93;2.60;;;11.50;99.90;;;;;;4950623;29;20091;-90
2022/01/03 10:49:16;;;;;;;13.83;2.67;;;11.50;99.90;;;;;;4932618;29;20038;-90
2022/01/03 10:51:42;;;;;;;16.70;2.90;;;11.50;99.90;;;;;;4950483;29;20367;-89
2022/01/03 10:54:11;;;;;;;16.20;2.83;;;11.50;99.90;;;;;;4934598;29;20520;-90
2022/01/03 10:56:49;;;;;;;19.80;2.73;;;11.50;99.90;;;;;;4934723;29;20035;-91
2022/01/03 10:59:28;;;;;;;15.93;2.35;;;11.60;99.90;;;;;;4949945;29;20027;-90
2022/01/03 11:01:56;;;;;;;16.20;2.67;;;11.60;99.90;;;;;;4950485;28;20578;-90
2022/01/03 11:13:08;;;;;;;21.27;3.20;;;11.60;99.90;;;;;;4934357;29;20027;-90
2022/01/03 11:15:35;;;;;;;18.60;2.93;;;11.60;99.90;;;;;;4934384;29;20111;-90
2022/01/03 11:18:24;;;;;;;20.17;3.80;;;11.60;99.90;;;;;;4949995;29;20505;-90
2022/01/03 11:21:13;;;;;;;15.80;2.95;;;11.60;99.90;;;;;;4949908;29;20031;-90
2022/01/03 11:23:40;;;;;;;;;;;11.70;99.90;;;;;;4918331;29;20046;-90
2022/01/03 11:26:08;;;;;;;18.87;2.43;;;11.70;99.90;;;;;;4934373;29;20384;-90
2022/01/03 11:28:34;;;;;;;12.40;2.47;;;11.70;99.90;;;;;;4950351;28;20062;-91
2022/01/03 11:31:01;;;;;;;16.77;2.80;;;11.70;99.90;;;;;;4953164;29;20044;-90
2022/01/03 11:33:27;;;;;;;12.00;2.20;;;11.70;99.90;;;;;;4950815;28;20035;-90
2022/01/03 11:35:53;;;;;;;12.43;2.30;;;11.70;99.90;;;;;;4934930;29;20031;-89
2022/01/03 11:38:21;;;;;;;16.40;3.07;;;11.80;99.90;;;;;;4943933;29;20132;-90
2022/01/03 11:40:47;;;;;;;19.83;3.47;;;11.70;99.90;;;;;;4943017;29;20023;-89
2022/01/03 11:43:14;;;;;;;14.00;2.90;;;11.70;99.90;;;;;;4952495;28;20040;-90
2022/01/03 11:45:40;;;;;;;12.10;2.70;;;11.70;99.90;;;;;;4951525;29;20031;-89
2022/01/03 11:48:08;;;;;;;11.43;3.03;;;11.70;99.90;;;;;;4934869;29;20129;-90
2022/01/03 11:50:37;;;;;;;16.53;3.40;;;11.70;99.90;;;;;;4950447;29;20027;-91
2022/01/03 11:53:08;;;;;;;14.23;3.00;;;11.70;99.90;;;;;;4933677;29;20036;-91
2022/01/03 11:55:34;;;;;;;25.33;3.70;;;11.80;99.90;;;;;;4950871;29;20302;-90
2022/01/03 12:06:05;;;;;;;16.67;2.83;;;11.80;99.90;;;;;;4933826;29;20463;-90
2022/01/03 12:08:34;;;;;;;19.20;3.83;;;11.90;99.90;;;;;;4949525;28;20110;-90
2022/01/03 12:11:01;;;;;;;15.73;3.17;;;11.80;99.90;;;;;;4933951;29;20431;-90
2022/01/03 12:13:49;;;;;;;11.27;2.40;;;11.90;99.90;;;;;;4950794;28;20496;-90
2022/01/03 12:16:15;;;;;;;17.27;2.33;;;11.90;99.90;;;;;;4933860;29;20032;-91
2022/01/03 12:19:27;;;;;;;15.97;2.43;;;11.80;99.90;;;;;;4949083;29;20466;-90
2022/01/03 12:22:20;;;;;;;13.80;2.23;;;11.80;99.90;;;;;;4901612;29;20039;-90
2022/01/03 12:25:03;;;;;;;14.60;2.93;;;11.80;99.90;;;;;;4917782;29;20138;-90
2022/01/03 12:27:37;;;;;;;8.60;2.17;;;11.80;99.90;;;;;;4949250;29;20083;-90
2022/01/03 12:30:08;;;;;;;12.10;2.43;;;11.70;99.90;;;;;;4933446;29;20027;-90
2022/01/03 12:33:06;;;;;;;13.63;3.00;;;11.70;99.90;;;;;;4933141;29;20031;-90
2022/01/03 12:35:34;;;;;;;14.70;2.60;;;11.60;99.90;;;;;;4917211;29;20065;-90
2022/01/03 12:38:02;;;;;;;16.23;2.23;;;11.60;99.90;;;;;;4948812;29;20039;-90
2022/01/03 12:40:43;;;;;;;13.60;2.10;;;11.60;99.90;;;;;;4934156;29;20063;-91
2022/01/03 12:43:12;;;;;;;13.90;3.27;;;11.50;99.90;;;;;;4933099;29;20040;-90
2022/01/03 12:45:42;;;;;;;16.35;3.15;;;11.40;99.90;;;;;;4949460;29;20038;-89
2022/01/03 12:48:08;;;;;;;14.53;3.43;;;11.20;99.90;;;;;;4932996;29;20040;-91
2022/01/03 12:50:34;;;;;;;17.70;3.03;;;11.10;99.90;;;;;;4933307;29;20032;-90
2022/01/03 12:53:02;;;;;;;16.47;3.67;;;11.00;99.90;;;;;;4936271;29;20127;-90
2022/01/03 12:55:36;;;;;;;22.50;6.33;;;11.00;99.90;;;;;;4952637;28;20442;-90
2022/01/03 12:58:25;;;;;;;16.70;4.17;;;11.00;99.90;;;;;;4936156;29;20028;-91
2022/01/03 13:01:08;;;;;;;18.38;3.42;;;11.00;99.90;;;;;;4936513;29;20058;-90
2022/01/03 13:03:43;;;;;;;17.63;3.70;;;11.00;99.90;;;;;;4936560;29;20127;-90
2022/01/03 13:06:25;;;;;;;14.97;2.90;;;11.00;99.90;;;;;;4952406;29;20028;-91
2022/01/03 13:08:54;;;;;;;12.17;2.00;;;11.00;99.90;;;;;;4936013;29;20124;-91
2022/01/03 13:11:26;;;;;;;8.07;1.65;;;11.00;99.90;;;;;;4936426;29;20486;-90
2022/01/03 13:13:54;;;;;;;8.50;1.90;;;11.00;99.90;;;;;;4937729;29;20024;-90
2022/01/03 13:16:36;;;;;;;10.97;1.73;;;11.10;99.90;;;;;;4952864;28;20027;-89
2022/01/03 13:19:06;;;;;;;15.77;3.27;;;11.00;99.90;;;;;;4951951;29;20278;-90
2022/01/03 13:21:37;;;;;;;14.20;2.20;;;11.00;99.90;;;;;;4952210;29;20075;-90
2022/01/03 13:24:15;;;;;;;14.63;2.23;;;11.00;99.90;;;;;;4952424;29;20040;-89
2022/01/03 13:27:00;;;;;;;11.70;2.20;;;11.00;99.90;;;;;;4936213;29;20046;-90
2022/01/03 13:29:40;;;;;;;9.00;2.03;;;10.90;99.90;;;;;;4951467;29;20102;-90
2022/01/03 13:32:06;;;;;;;;;;;11.00;99.90;;;;;;4956599;28;20042;-90
2022/01/03 13:34:33;;;;;;;8.70;2.03;;;11.00;99.90;;;;;;4942386;29;19918;-90
2022/01/03 13:37:03;;;;;;;9.43;2.03;;;11.00;99.90;;;;;;4936598;29;20036;-90
2022/01/03 13:39:31;;;;;;;12.33;1.80;;;10.90;99.90;;;;;;4935855;29;20031;-90
2022/01/03 13:42:05;;;;;;;8.27;2.20;;;10.90;99.90;;;;;;4935831;29;20071;-90
2022/01/03 13:44:48;;;;;;;11.33;1.97;;;11.00;99.90;;;;;;4952255;29;20071;-91
2022/01/03 13:50:03;;;;;;;14.60;2.47;;;10.90;99.90;;;;;;4935925;29;20480;-90
2022/01/03 13:52:47;;;;;;;11.27;2.07;;;10.90;99.90;;;;;;4935538;29;20030;-90
2022/01/03 13:55:20;;;;;;;15.20;2.93;;;10.90;99.90;;;;;;4952042;29;20039;-90
2022/01/03 13:57:50;;;;;;;9.07;2.17;;;10.90;99.90;;;;;;4951515;28;20036;-90
2022/01/03 14:00:18;;;;;;;11.03;2.37;;;10.90;99.90;;;;;;4951658;29;20631;-90
2022/01/03 14:02:47;;;;;;;13.63;3.07;;;10.90;99.90;;;;;;4935080;29;20035;-90
2022/01/03 14:05:14;;;;;;;14.40;2.63;;;10.80;99.90;;;;;;4951530;28;20338;-90
2022/01/03 14:07:58;;;;;;;14.63;2.53;;;10.80;99.90;;;;;;4951635;28;20075;-90
2022/01/03 14:10:43;;;;;;;11.33;1.90;;;10.80;99.90;;;;;;4953729;29;20082;-90
2022/01/03 14:13:15;;;;;;;11.00;2.13;;;10.80;99.90;;;;;;4937748;29;20028;-90
2022/01/03 14:16:02;;;;;;;12.30;2.60;;;10.80;99.90;;;;;;4953671;28;20028;-90
2022/01/03 14:18:41;;;;;;;12.47;2.50;;;10.70;99.90;;;;;;4937348;29;20035;-90
2022/01/03 14:21:09;;;;;;;14.47;3.00;;;10.80;99.90;;;;;;4953458;29;20036;-91
2022/01/03 14:23:39;;;;;;;12.07;2.53;;;10.80;99.90;;;;;;4953136;28;20472;-90